Time;durP1;ratioP1;P1;durP2;ratioP2;P2;SDS_P1;SDS_P2;PMS_P1;PMS_P2;Temp;Humidity;BMP_temperature;BMP_pressure;BME280_temperature;BME280_humidity;BME280_pressure;Samples;Min_cycle;Max_cycle;Signal;HPM_P1;HPM_P2
2023/07/09 00:01:55;;;;;;;6.03;3.95;;;;;;;27.15;40.50;100660.78;5092929;28;20070;-68
2023/07/09 00:04:23;;;;;;;7.63;4.10;;;;;;;27.13;40.32;100665.59;5092946;28;20052;-68
2023/07/09 00:06:52;;;;;;;5.75;3.80;;;;;;;27.11;40.63;100659.44;5092829;28;20119;-68
2023/07/09 00:09:22;;;;;;;6.20;4.18;;;;;;;27.09;40.80;100662.38;5092595;28;20063;-68
2023/07/09 00:11:51;;;;;;;5.82;4.10;;;;;;;27.08;40.54;100666.16;5092752;28;20067;-68
2023/07/09 00:14:22;;;;;;;6.78;4.05;;;;;;;27.06;41.00;100668.25;5092780;28;20078;-68
2023/07/09 00:16:50;;;;;;;6.45;3.60;;;;;;;27.06;40.61;100667.41;5092681;28;20087;-68
2023/07/09 00:19:23;;;;;;;6.65;3.90;;;;;;;27.07;40.96;100677.31;5092706;28;20048;-68
2023/07/09 00:21:54;;;;;;;5.10;3.90;;;;;;;27.04;40.70;100664.84;5092494;28;20068;-68
2023/07/09 00:24:23;;;;;;;5.68;3.83;;;;;;;27.03;40.67;100670.53;5092616;28;20048;-68
2023/07/09 00:26:52;;;;;;;6.38;3.95;;;;;;;27.02;41.13;100671.50;5092289;28;20082;-68
2023/07/09 00:29:20;;;;;;;5.45;3.80;;;;;;;27.00;40.84;100662.63;5091542;28;20660;-68
2023/07/09 00:31:49;;;;;;;5.90;3.67;;;;;;;26.98;40.82;100664.72;5092206;28;20048;-68
2023/07/09 00:34:21;;;;;;;6.13;3.90;;;;;;;26.96;41.06;100656.69;5092132;28;20083;-68
2023/07/09 00:36:51;;;;;;;5.60;4.10;;;;;;;26.95;41.43;100656.91;5092425;28;20044;-68
2023/07/09 00:39:21;;;;;;;5.22;3.67;;;;;;;26.94;41.20;100660.66;5092241;28;20079;-68
2023/07/09 00:41:51;;;;;;;6.18;4.20;;;;;;;26.92;41.32;100663.56;5092196;28;20073;-69
2023/07/09 00:44:30;;;;;;;5.82;4.00;;;;;;;26.91;41.27;100663.75;5091965;28;20511;-69
2023/07/09 00:47:23;;;;;;;6.43;4.07;;;;;;;26.90;41.30;100662.06;5092313;28;20105;-68
2023/07/09 00:50:01;;;;;;;5.65;3.90;;;;;;;26.88;41.67;100658.69;5091906;28;20669;-68
2023/07/09 00:52:35;;;;;;;5.00;3.90;;;;;;;26.85;41.30;100653.59;5091174;28;20504;-68
2023/07/09 00:55:09;;;;;;;6.63;4.10;;;;;;;26.82;41.79;100649.31;5091841;28;20066;-68
2023/07/09 00:57:41;;;;;;;6.78;4.30;;;;;;;26.82;41.80;100655.63;5092069;28;20459;-68
2023/07/09 01:00:15;;;;;;;5.45;3.92;;;;;;;26.81;41.66;100653.94;5091863;28;20074;-68
2023/07/09 01:02:48;;;;;;;6.93;3.90;;;;;;;26.81;41.52;100655.84;5091763;28;20455;-68
2023/07/09 01:05:19;;;;;;;6.97;4.10;;;;;;;26.77;42.00;100649.91;5091679;28;20056;-68
2023/07/09 01:07:48;;;;;;;5.90;3.92;;;;;;;26.77;42.18;100654.53;5091577;28;20143;-68
2023/07/09 01:10:18;;;;;;;7.03;4.18;;;;;;;26.75;42.06;100654.72;5091358;28;20564;-68
2023/07/09 01:12:50;;;;;;;7.30;4.00;;;;;;;26.74;41.83;100657.66;5091601;28;20040;-68
2023/07/09 01:15:18;;;;;;;7.80;4.10;;;;;;;26.73;41.86;100656.81;5091616;28;20048;-68
2023/07/09 01:17:47;;;;;;;8.30;4.30;;;;;;;26.71;41.85;100647.91;5091541;28;20094;-68
2023/07/09 01:20:20;;;;;;;6.05;4.20;;;;;;;26.71;41.96;100647.06;5091357;28;20052;-68
2023/07/09 01:22:54;;;;;;;6.13;3.67;;;;;;;26.68;42.39;100653.75;5091602;28;20087;-68
2023/07/09 01:25:23;;;;;;;6.43;3.70;;;;;;;26.68;42.38;100663.84;5091660;28;20050;-68
2023/07/09 01:27:52;;;;;;;6.25;3.78;;;;;;;26.65;42.11;100659.63;5091615;28;20048;-68
2023/07/09 01:30:22;;;;;;;7.70;4.47;;;;;;;26.65;42.18;100656.88;5091507;28;20087;-68
2023/07/09 01:32:51;;;;;;;5.57;4.03;;;;;;;26.62;42.11;100665.44;5091432;28;20052;-68
2023/07/09 01:35:21;;;;;;;5.82;3.83;;;;;;;26.63;42.28;100664.41;5091614;28;20059;-69
2023/07/09 01:37:51;;;;;;;6.47;4.03;;;;;;;26.60;42.60;100666.66;5091507;28;20048;-69
2023/07/09 01:40:22;;;;;;;5.50;3.80;;;;;;;26.58;42.47;100658.66;5091328;28;20055;-68
2023/07/09 01:43:01;;;;;;;7.05;4.53;;;;;;;26.58;42.54;100672.34;5091289;28;20482;-69
2023/07/09 01:45:32;;;;;;;6.53;4.18;;;;;;;26.56;42.35;100666.22;5091652;28;20072;-69
2023/07/09 01:48:02;;;;;;;5.65;3.85;;;;;;;26.54;42.64;100671.03;5091483;28;20522;-67
2023/07/09 01:50:30;;;;;;;5.15;3.67;;;;;;;26.54;42.65;100668.28;5091421;28;20079;-69
2023/07/09 01:53:00;;;;;;;6.70;4.00;;;;;;;26.52;42.70;100670.34;5091315;28;20044;-68
2023/07/09 01:55:30;;;;;;;6.28;4.22;;;;;;;26.51;42.33;100677.69;5091152;28;20040;-69
2023/07/09 01:57:58;;;;;;;5.28;3.70;;;;;;;26.50;42.35;100675.16;5091148;28;20130;-69
2023/07/09 02:00:26;;;;;;;5.68;4.30;;;;;;;26.47;42.93;100672.78;5091383;28;20083;-68
2023/07/09 02:02:55;;;;;;;6.22;4.03;;;;;;;26.47;42.81;100683.72;5091159;28;20512;-69
2023/07/09 02:05:24;;;;;;;5.97;4.07;;;;;;;26.46;42.61;100671.09;5094023;28;20131;-68
2023/07/09 02:07:52;;;;;;;6.55;3.92;;;;;;;26.45;42.54;100678.44;5095091;28;20052;-68
2023/07/09 02:10:22;;;;;;;6.40;3.67;;;;;;;26.43;42.82;100674.19;5094651;28;20485;-68
2023/07/09 02:12:50;;;;;;;6.68;3.95;;;;;;;26.42;42.75;100677.94;5095163;28;20048;-68
2023/07/09 02:15:18;;;;;;;5.90;4.15;;;;;;;26.39;42.83;100676.44;5095212;28;20136;-68
2023/07/09 02:17:46;;;;;;;6.20;3.97;;;;;;;26.39;42.88;100683.78;5095028;28;20082;-68
2023/07/09 02:20:15;;;;;;;5.88;3.60;;;;;;;26.37;42.93;100678.53;5094869;28;20051;-68
2023/07/09 02:22:43;;;;;;;5.93;3.47;;;;;;;26.36;42.85;100682.25;5094694;28;20044;-68
2023/07/09 02:25:12;;;;;;;4.93;3.63;;;;;;;26.34;42.57;100683.44;5094723;28;20048;-68
2023/07/09 02:27:41;;;;;;;5.40;4.00;;;;;;;26.33;43.11;100681.75;5094835;28;20569;-68
2023/07/09 02:30:11;;;;;;;6.18;3.97;;;;;;;26.31;42.78;100678.38;5094448;28;20523;-68
2023/07/09 02:32:39;;;;;;;5.97;4.15;;;;;;;26.30;42.89;100682.13;5094746;28;20044;-68
2023/07/09 02:35:08;;;;;;;5.65;3.85;;;;;;;26.28;42.98;100676.00;5094692;28;20136;-70
2023/07/09 02:37:37;;;;;;;5.75;3.83;;;;;;;26.26;43.27;100684.41;5094504;28;20477;-69
2023/07/09 02:40:07;;;;;;;5.32;3.40;;;;;;;26.24;42.89;100673.63;5094733;28;20048;-68
2023/07/09 02:42:35;;;;;;;6.22;4.18;;;;;;;26.22;42.75;100678.44;5094764;28;20047;-68
2023/07/09 02:45:06;;;;;;;6.55;4.43;;;;;;;26.22;42.95;100680.31;5094580;28;20413;-68
2023/07/09 02:47:34;;;;;;;5.45;3.58;;;;;;;26.20;42.98;100676.91;5094498;28;20379;-67
2023/07/09 02:50:04;;;;;;;6.93;4.00;;;;;;;26.18;42.96;100668.91;5094110;28;20109;-68
2023/07/09 02:52:33;;;;;;;5.43;3.90;;;;;;;26.17;43.46;100672.69;5094513;28;20048;-69
2023/07/09 02:55:02;;;;;;;5.85;3.67;;;;;;;26.16;43.54;100681.91;5094228;28;20418;-68
2023/07/09 02:57:30;;;;;;;6.55;3.88;;;;;;;26.13;43.19;100679.53;5076019;28;20055;-69
2023/07/09 02:59:58;;;;;;;6.18;3.80;;;;;;;26.13;43.38;100686.88;5094233;28;20067;-68
2023/07/09 03:02:28;;;;;;;7.63;3.72;;;;;;;26.12;43.33;100683.28;5094007;28;20098;-69
2023/07/09 03:04:56;;;;;;;5.80;3.90;;;;;;;26.11;43.53;100683.47;5093930;28;20043;-67
2023/07/09 03:07:24;;;;;;;6.68;3.58;;;;;;;26.09;43.26;100682.81;5094140;28;20135;-68
2023/07/09 03:09:53;;;;;;;6.32;3.70;;;;;;;26.07;43.27;100688.47;5093594;28;20048;-67
2023/07/09 03:12:21;;;;;;;4.68;3.42;;;;;;;26.07;43.61;100691.22;5093950;28;20056;-67
2023/07/09 03:14:49;;;;;;;5.57;3.58;;;;;;;26.06;43.42;100691.41;5093772;28;20431;-68
2023/07/09 03:17:18;;;;;;;6.25;3.80;;;;;;;26.02;43.58;100693.63;5092663;28;20101;-67
2023/07/09 03:19:47;;;;;;;6.47;4.07;;;;;;;26.03;43.69;100698.06;5093830;28;20054;-68
2023/07/09 03:22:16;;;;;;;5.57;3.78;;;;;;;26.01;43.73;100700.13;5093810;28;20160;-68
2023/07/09 03:24:44;;;;;;;6.07;3.92;;;;;;;26.00;43.75;100698.44;5093592;28;20571;-68
2023/07/09 03:27:12;;;;;;;6.25;3.70;;;;;;;25.99;43.72;100695.88;5093627;28;20143;-68
2023/07/09 03:29:41;;;;;;;5.07;3.95;;;;;;;25.98;43.62;100694.19;5093485;28;20059;-68
2023/07/09 03:32:09;;;;;;;6.05;3.58;;;;;;;25.96;43.71;100697.06;5093374;28;20056;-69
2023/07/09 03:34:37;;;;;;;5.35;3.50;;;;;;;25.94;43.77;100693.69;5093652;28;20047;-69
2023/07/09 03:37:07;;;;;;;5.95;4.05;;;;;;;25.93;43.59;100701.03;5093622;28;20071;-68
2023/07/09 03:39:35;;;;;;;7.38;3.83;;;;;;;25.93;44.02;100702.91;5093601;28;20055;-68
2023/07/09 03:42:03;;;;;;;5.38;3.70;;;;;;;25.91;43.91;100699.50;5094126;28;20468;-68
2023/07/09 03:44:31;;;;;;;7.22;3.70;;;;;;;25.88;43.94;100699.88;5098103;28;20104;-69
2023/07/09 03:46:59;;;;;;;6.53;3.90;;;;;;;25.89;43.89;100702.44;5108587;28;20067;-69
2023/07/09 03:49:28;;;;;;;6.72;4.20;;;;;;;25.88;44.13;100700.75;5094135;28;20044;-69
2023/07/09 03:51:56;;;;;;;5.72;3.60;;;;;;;25.87;43.88;100699.03;5094022;28;20139;-69
2023/07/09 03:54:25;;;;;;;5.32;3.90;;;;;;;25.85;43.95;100695.59;5093271;28;20089;-68
2023/07/09 03:56:54;;;;;;;5.93;3.92;;;;;;;25.85;43.99;100697.50;5092987;28;20059;-68
2023/07/09 03:59:22;;;;;;;5.28;4.07;;;;;;;25.83;44.33;100700.41;5092877;28;20039;-68
2023/07/09 04:01:51;;;;;;;6.75;4.00;;;;;;;25.83;44.08;100696.84;5092814;28;20467;-68
2023/07/09 04:04:20;;;;;;;6.35;4.15;;;;;;;25.81;44.26;100693.44;5092910;28;20052;-68
2023/07/09 04:06:48;;;;;;;6.28;4.18;;;;;;;25.81;44.36;100698.91;5092997;28;20048;-68
2023/07/09 04:09:17;;;;;;;7.38;3.75;;;;;;;25.81;43.94;100699.75;5092644;28;20089;-68
2023/07/09 04:11:46;;;;;;;5.40;3.83;;;;;;;25.80;43.97;100706.25;5092585;28;20098;-68
2023/07/09 04:14:14;;;;;;;7.07;4.10;;;;;;;25.79;44.51;100701.81;5092893;28;20051;-68
2023/07/09 04:16:43;;;;;;;6.05;3.97;;;;;;;25.79;44.25;100711.91;5092660;28;20545;-68
2023/07/09 04:19:11;;;;;;;5.75;3.92;;;;;;;25.78;44.46;100711.06;5092388;28;20059;-68
2023/07/09 04:21:39;;;;;;;6.10;3.90;;;;;;;25.78;44.00;100713.78;5092509;28;20056;-68
2023/07/09 04:24:07;;;;;;;6.18;3.75;;;;;;;25.78;44.54;100710.19;5092566;28;20048;-69
2023/07/09 04:26:39;;;;;;;8.40;4.35;;;;;;;25.77;44.42;100708.47;5092689;28;20080;-68
2023/07/09 04:29:09;;;;;;;5.80;4.03;;;;;;;25.77;44.34;100711.19;5092490;28;20071;-68
2023/07/09 04:31:38;;;;;;;6.78;3.90;;;;;;;25.76;44.32;100701.31;5092515;28;20048;-68
2023/07/09 04:34:07;;;;;;;6.25;3.83;;;;;;;25.75;44.53;100705.91;5092274;28;20485;-68
2023/07/09 04:36:35;;;;;;;6.03;3.80;;;;;;;25.74;44.69;100708.84;5092283;28;20052;-68
2023/07/09 04:39:04;;;;;;;6.72;4.30;;;;;;;25.74;44.75;100711.56;5092405;28;20052;-68
2023/07/09 04:41:32;;;;;;;6.32;4.10;;;;;;;25.74;44.75;100714.31;5092005;28;20044;-67
2023/07/09 04:44:01;;;;;;;5.72;4.10;;;;;;;25.73;44.50;100712.59;5092173;28;20134;-68
2023/07/09 04:46:30;;;;;;;5.93;4.20;;;;;;;25.72;44.64;100710.91;5092278;28;20435;-69
2023/07/09 04:49:00;;;;;;;6.10;3.95;;;;;;;25.71;44.82;100709.22;5091955;28;20075;-67
2023/07/09 04:51:28;;;;;;;6.22;4.22;;;;;;;25.69;44.43;100707.47;5091837;28;20069;-67
2023/07/09 04:53:56;;;;;;;7.03;4.28;;;;;;;25.72;44.49;100717.22;5092087;28;20075;-68
2023/07/09 04:56:24;;;;;;;6.93;4.00;;;;;;;25.69;44.40;100712.94;5092038;28;20044;-68
2023/07/09 04:58:52;;;;;;;7.75;4.10;;;;;;;25.71;44.50;100711.94;5091931;28;20048;-68
2023/07/09 05:01:20;;;;;;;6.25;4.05;;;;;;;25.71;44.50;100715.53;5091774;28;20490;-68
2023/07/09 05:03:50;;;;;;;6.32;4.00;;;;;;;25.71;44.64;100720.97;5091673;28;20050;-68
2023/07/09 05:06:18;;;;;;;6.28;4.00;;;;;;;25.68;44.73;100722.16;5091642;28;20048;-67
2023/07/09 05:08:48;;;;;;;6.60;4.00;;;;;;;25.68;44.39;100716.72;5091758;28;20075;-68
2023/07/09 05:11:16;;;;;;;5.90;3.72;;;;;;;25.69;44.60;100718.41;5091683;28;20044;-68
2023/07/09 05:13:44;;;;;;;5.63;4.05;;;;;;;25.67;44.43;100715.00;5091617;28;20080;-68
2023/07/09 05:16:13;;;;;;;6.22;4.10;;;;;;;25.68;44.64;100721.31;5091679;28;20126;-67
2023/07/09 05:18:41;;;;;;;6.32;3.70;;;;;;;25.67;44.57;100715.00;5091457;28;20117;-68
2023/07/09 05:21:10;;;;;;;5.00;3.78;;;;;;;25.69;44.44;100721.13;5091806;28;20044;-67
2023/07/09 05:23:40;;;;;;;6.00;3.95;;;;;;;25.69;44.40;100712.94;5091716;28;20048;-67
2023/07/09 05:26:08;;;;;;;6.55;3.95;;;;;;;25.68;44.63;100713.97;5091619;28;20413;-67
2023/07/09 05:28:36;;;;;;;7.03;3.78;;;;;;;25.67;44.55;100715.00;5091559;28;20048;-67
2023/07/09 05:31:05;;;;;;;6.60;4.25;;;;;;;25.68;44.59;100713.97;5091321;28;20135;-67
2023/07/09 05:33:33;;;;;;;7.22;3.90;;;;;;;25.68;44.45;100719.44;5091525;28;20048;-67
2023/07/09 05:36:02;;;;;;;7.38;3.97;;;;;;;25.68;44.57;100716.72;5091563;28;20423;-67
2023/07/09 05:38:32;;;;;;;5.20;3.47;;;;;;;25.69;44.35;100723.88;5091569;28;20052;-68
2023/07/09 05:41:03;;;;;;;8.13;4.40;;;;;;;25.68;44.63;100713.97;5095540;28;20420;-67
2023/07/09 05:43:31;;;;;;;6.10;4.10;;;;;;;25.69;44.29;100720.28;5095723;28;20056;-68
2023/07/09 05:46:02;;;;;;;6.30;3.88;;;;;;;25.68;44.63;100716.72;5095759;28;20135;-68
2023/07/09 05:48:30;;;;;;;5.10;4.03;;;;;;;25.68;44.50;100724.06;5095400;28;20477;-67
2023/07/09 05:50:59;;;;;;;6.00;4.05;;;;;;;25.68;44.40;100721.31;5095404;28;20048;-67
2023/07/09 05:53:27;;;;;;;6.32;3.97;;;;;;;25.66;44.67;100718.75;5095243;28;20054;-69
2023/07/09 05:55:57;;;;;;;6.55;4.15;;;;;;;25.67;44.39;100715.00;5095272;28;20059;-68
2023/07/09 05:58:25;;;;;;;6.57;3.90;;;;;;;25.68;44.60;100715.84;5095140;28;20048;-67
2023/07/09 06:00:56;;;;;;;6.10;3.90;;;;;;;25.68;44.28;100722.16;5095448;28;20139;-68
2023/07/09 06:03:27;;;;;;;6.97;3.88;;;;;;;25.65;44.37;100721.66;5095421;28;20130;-69
2023/07/09 06:05:58;;;;;;;4.85;3.60;;;;;;;25.67;44.46;100720.47;5095322;28;20098;-68
2023/07/09 06:08:27;;;;;;;5.93;3.70;;;;;;;25.66;44.30;100718.75;5094810;28;20101;-67
2023/07/09 06:10:59;;;;;;;6.32;4.20;;;;;;;25.67;44.26;100717.75;5095000;28;20052;-67
2023/07/09 06:13:30;;;;;;;7.55;3.90;;;;;;;25.68;44.40;100718.59;5095049;28;20055;-69
2023/07/09 06:16:00;;;;;;;6.68;3.60;;;;;;;25.67;44.44;100712.28;5095009;28;20059;-67
2023/07/09 06:18:30;;;;;;;6.70;3.78;;;;;;;25.67;44.51;100720.47;5094883;28;20405;-68
2023/07/09 06:21:00;;;;;;;5.55;3.72;;;;;;;25.67;44.31;100720.47;5094910;28;20598;-68
2023/07/09 06:23:29;;;;;;;5.88;3.65;;;;;;;25.67;44.42;100712.28;5094714;28;20044;-68
2023/07/09 06:25:58;;;;;;;5.35;3.50;;;;;;;25.67;44.53;100717.75;5094920;28;20083;-68
2023/07/09 06:28:29;;;;;;;6.32;3.95;;;;;;;25.67;44.53;100725.94;5094742;28;20071;-71
2023/07/09 06:30:58;;;;;;;6.60;3.90;;;;;;;25.67;44.39;100712.28;5094733;28;20044;-67
2023/07/09 06:33:27;;;;;;;5.43;3.67;;;;;;;25.68;44.30;100724.91;5094590;28;20087;-67
2023/07/09 06:35:57;;;;;;;6.18;3.88;;;;;;;25.69;44.52;100718.41;5094379;28;20105;-69
2023/07/09 06:38:26;;;;;;;5.93;3.83;;;;;;;25.71;44.20;100720.13;5094681;28;20056;-68
2023/07/09 06:40:54;;;;;;;5.90;3.65;;;;;;;25.71;44.35;100714.66;5094825;28;20044;-68
2023/07/09 06:43:24;;;;;;;4.97;3.42;;;;;;;25.71;44.34;100714.66;5094332;28;20151;-67
2023/07/09 06:45:55;;;;;;;6.70;3.92;;;;;;;25.72;44.46;100716.38;5094162;28;20075;-66
2023/07/09 06:48:24;;;;;;;5.57;3.80;;;;;;;25.72;44.07;100719.09;5094025;28;20044;-66
2023/07/09 06:50:54;;;;;;;7.85;4.20;;;;;;;25.72;44.12;100710.91;5094060;28;20101;-67
2023/07/09 06:53:22;;;;;;;6.10;3.85;;;;;;;25.73;44.41;100709.88;5094149;28;20440;-68
2023/07/09 06:55:52;;;;;;;7.63;3.90;;;;;;;25.72;43.95;100705.44;5094295;28;20474;-68
2023/07/09 06:58:20;;;;;;;5.63;4.07;;;;;;;25.74;44.14;100714.31;5094110;28;20048;-68
2023/07/09 07:00:50;;;;;;;6.60;3.95;;;;;;;25.74;44.06;100714.31;5093795;28;20083;-68
2023/07/09 07:03:19;;;;;;;6.68;4.20;;;;;;;25.73;44.04;100718.06;5094106;28;20062;-68
2023/07/09 07:05:48;;;;;;;5.25;3.80;;;;;;;25.73;44.15;100716.19;5093922;28;20051;-67
2023/07/09 07:08:19;;;;;;;6.57;3.72;;;;;;;25.76;44.18;100714.97;5093684;28;20059;-67
2023/07/09 07:10:48;;;;;;;6.88;3.70;;;;;;;25.76;43.72;100712.22;5093850;28;20048;-67
2023/07/09 07:13:17;;;;;;;5.60;4.00;;;;;;;25.76;43.88;100709.50;5093755;28;20044;-67
2023/07/09 07:15:50;;;;;;;6.22;3.90;;;;;;;25.76;43.93;100713.09;5094146;28;20091;-68
2023/07/09 07:18:18;;;;;;;5.82;3.70;;;;;;;25.80;44.06;100719.06;5094015;28;20041;-69
2023/07/09 07:20:47;;;;;;;5.93;4.25;;;;;;;25.81;43.84;100723.50;5093858;28;20048;-68
2023/07/09 07:23:15;;;;;;;6.15;3.90;;;;;;;25.81;44.11;100715.28;5094239;28;20044;-67
2023/07/09 07:25:46;;;;;;;5.53;3.40;;;;;;;25.83;44.00;100715.97;5094612;28;20405;-66
2023/07/09 07:28:14;;;;;;;5.68;3.53;;;;;;;25.83;43.93;100708.63;5093824;28;20040;-66
2023/07/09 07:30:42;;;;;;;4.93;3.20;;;;;;;25.83;44.16;100707.75;5098927;28;20052;-67
2023/07/09 07:33:15;;;;;;;5.80;3.65;;;;;;;25.87;44.20;100709.13;5102574;28;20067;-66
2023/07/09 07:35:43;;;;;;;;;;;;;;;25.88;44.12;100710.81;5103813;28;20051;-66
2023/07/09 07:38:31;;;;;;;6.15;3.55;;;;;;;25.89;44.31;100717.97;5103754;28;19942;-66
2023/07/09 07:40:59;;;;;;;5.82;3.80;;;;;;;25.89;43.97;100707.91;5124354;28;20149;-65
2023/07/09 07:43:27;;;;;;;5.30;3.70;;;;;;;25.90;44.12;100711.47;5122982;28;20514;-65
2023/07/09 07:45:56;;;;;;;4.47;3.30;;;;;;;25.91;44.08;100708.56;5117275;28;20040;-65
2023/07/09 07:48:25;;;;;;;6.15;3.53;;;;;;;25.92;44.51;100710.25;5105168;28;20101;-67
2023/07/09 07:51:01;;;;;;;5.95;4.03;;;;;;;25.93;44.12;100709.22;5102469;28;20078;-67
2023/07/09 07:53:30;;;;;;;7.13;3.85;;;;;;;25.94;44.21;100710.94;5103239;28;20109;-66
2023/07/09 07:55:59;;;;;;;6.50;3.75;;;;;;;25.96;44.20;100708.00;5102635;28;20055;-66
2023/07/09 07:58:27;;;;;;;6.32;3.65;;;;;;;25.98;44.33;100699.66;5102075;28;20048;-66
2023/07/09 08:00:56;;;;;;;6.30;4.10;;;;;;;25.99;44.26;100707.66;5108942;28;20055;-66
2023/07/09 08:03:26;;;;;;;5.30;3.60;;;;;;;26.01;44.21;100705.59;5103557;28;20055;-67
2023/07/09 08:05:55;;;;;;;5.45;3.22;;;;;;;26.01;44.14;100708.31;5109533;28;20043;-65
2023/07/09 08:08:23;;;;;;;5.75;3.38;;;;;;;26.03;44.47;100708.13;5100469;28;20044;-67
2023/07/09 08:10:51;;;;;;;6.40;4.00;;;;;;;26.03;44.40;100703.53;5106273;28;20378;-66
2023/07/09 08:13:19;;;;;;;6.15;3.42;;;;;;;26.05;44.35;100701.44;5110331;28;20075;-66
2023/07/09 08:15:48;;;;;;;4.68;3.50;;;;;;;26.06;44.23;100708.66;5102316;28;20122;-66
2023/07/09 08:18:17;;;;;;;7.15;3.90;;;;;;;26.07;43.91;100701.28;5099800;28;20044;-66
2023/07/09 08:20:46;;;;;;;5.72;3.90;;;;;;;26.08;43.87;100705.72;5093014;28;20044;-66
2023/07/09 08:23:14;;;;;;;6.13;3.88;;;;;;;26.09;44.30;100705.53;5092322;28;20485;-66
2023/07/09 08:25:42;;;;;;;6.68;3.50;;;;;;;26.10;43.86;100712.69;5092521;28;20425;-66
2023/07/09 08:28:11;;;;;;;6.45;3.63;;;;;;;26.11;44.17;100706.19;5092326;28;20074;-66
2023/07/09 08:30:39;;;;;;;6.40;3.65;;;;;;;26.13;43.97;100709.59;5092447;28;20097;-67
2023/07/09 08:33:07;;;;;;;6.38;3.65;;;;;;;26.14;43.79;100702.25;5092037;28;20204;-67
2023/07/09 08:35:35;;;;;;;4.93;3.00;;;;;;;26.16;43.70;100709.25;5092492;28;20062;-68
2023/07/09 08:38:05;;;;;;;4.85;3.17;;;;;;;26.17;43.92;100705.47;5092384;28;20044;-68
2023/07/09 08:40:33;;;;;;;5.10;3.17;;;;;;;26.19;43.69;100705.28;5090798;28;20139;-66
2023/07/09 08:43:21;;;;;;;4.75;3.17;;;;;;;26.19;43.16;100703.41;5091113;28;20072;-66
2023/07/09 08:45:56;;;;;;;4.70;3.00;;;;;;;26.22;43.56;100711.22;5071987;28;20106;-69
2023/07/09 08:48:31;;;;;;;6.60;3.30;;;;;;;26.23;43.17;100710.19;5071890;28;20051;-68
2023/07/09 08:51:04;;;;;;;5.53;3.20;;;;;;;26.25;43.14;100708.16;5071755;28;20075;-67
2023/07/09 08:53:40;;;;;;;5.53;3.08;;;;;;;26.23;42.92;100693.78;5071511;28;20059;-70
2023/07/09 08:56:10;;;;;;;3.97;2.88;;;;;;;26.28;43.11;100700.63;5071569;28;20131;-68
2023/07/09 08:58:40;;;;;;;5.38;3.10;;;;;;;26.28;42.70;100700.63;5071864;28;20094;-68
2023/07/09 09:01:19;;;;;;;4.93;3.10;;;;;;;26.29;42.98;100696.84;5090841;28;20044;-68
2023/07/09 09:03:50;;;;;;;4.72;3.10;;;;;;;26.31;42.37;100695.63;5091856;28;20056;-68
2023/07/09 09:06:21;;;;;;;5.47;2.90;;;;;;;26.32;42.19;100701.94;5091454;28;20294;-68
2023/07/09 09:09:02;;;;;;;4.50;2.97;;;;;;;26.35;42.23;100701.59;5089892;28;20048;-68
2023/07/09 09:11:44;;;;;;;5.57;3.13;;;;;;;26.38;42.24;100706.72;5089970;28;20044;-68
2023/07/09 09:14:27;;;;;;;5.85;2.95;;;;;;;26.39;41.77;100697.47;5089368;28;20317;-70
2023/07/09 09:16:57;;;;;;;4.38;2.80;;;;;;;26.40;41.48;100704.63;5089728;28;20359;-68
2023/07/09 09:19:36;;;;;;;5.28;2.90;;;;;;;26.42;41.77;100708.88;5090632;28;20043;-69
2023/07/09 09:22:09;;;;;;;4.90;2.70;;;;;;;26.43;41.73;100715.19;5091212;28;20047;-69
2023/07/09 09:24:41;;;;;;;;;;;;;;;26.44;41.78;100700.50;5092306;28;20090;-68
2023/07/09 09:27:10;;;;;;;5.93;2.80;;;;;;;26.45;41.41;100697.59;5092045;28;19973;-69
2023/07/09 09:29:38;;;;;;;4.53;3.03;;;;;;;26.44;41.09;100695.91;5091363;28;20048;-69
2023/07/09 09:32:25;;;;;;;4.25;2.90;;;;;;;26.48;40.96;100701.84;5091756;28;20115;-69
2023/07/09 09:34:54;;;;;;;4.47;3.03;;;;;;;26.47;41.27;100706.47;5091524;28;20466;-69
2023/07/09 09:37:28;;;;;;;4.93;3.10;;;;;;;26.49;41.37;100700.78;5091572;28;20044;-68
2023/07/09 09:40:00;;;;;;;4.40;2.80;;;;;;;26.49;41.49;100698.91;5091284;28;20051;-69
2023/07/09 09:42:31;;;;;;;4.72;2.75;;;;;;;26.51;41.17;100698.72;5091606;28;20419;-68
2023/07/09 09:44:59;;;;;;;3.92;2.50;;;;;;;26.54;41.00;100701.09;5091449;28;20044;-69
2023/07/09 09:47:28;;;;;;;6.28;2.70;;;;;;;26.55;40.61;100702.81;5091417;28;20060;-68
2023/07/09 09:49:56;;;;;;;3.63;2.50;;;;;;;26.56;40.74;100704.50;5091364;28;20048;-68
2023/07/09 09:52:33;;;;;;;5.05;2.83;;;;;;;26.58;40.71;100693.38;5091233;28;20048;-67
2023/07/09 09:55:13;;;;;;;4.30;2.70;;;;;;;26.60;40.28;100703.09;5091452;28;20091;-68
2023/07/09 09:57:49;;;;;;;4.30;2.83;;;;;;;26.61;40.55;100693.84;5091352;28;20044;-67
2023/07/09 10:00:19;;;;;;;6.25;2.95;;;;;;;26.61;40.23;100691.09;5092550;28;20048;-67
2023/07/09 10:02:47;;;;;;;3.60;2.42;;;;;;;26.63;40.35;100694.50;5091291;28;20040;-67
2023/07/09 10:05:17;;;;;;;4.07;2.72;;;;;;;26.65;40.22;100686.97;5091386;28;20382;-68
2023/07/09 10:08:01;;;;;;;16.38;2.85;;;;;;;26.67;39.97;100690.38;5091348;28;20044;-67
2023/07/09 10:10:34;;;;;;;5.50;2.88;;;;;;;26.69;39.59;100688.28;5090812;28;20455;-68
2023/07/09 10:13:12;;;;;;;3.80;2.75;;;;;;;26.71;39.38;100686.22;5091164;28;20136;-68
2023/07/09 10:15:46;;;;;;;4.45;2.90;;;;;;;26.71;39.52;100691.69;5091258;28;20044;-68
2023/07/09 10:18:30;;;;;;;4.32;3.03;;;;;;;26.74;39.44;100688.59;5091209;28;20138;-68
2023/07/09 10:21:08;;;;;;;4.35;2.63;;;;;;;26.74;39.65;100683.13;5091006;28;20043;-68
2023/07/09 10:23:43;;;;;;;4.55;3.13;;;;;;;26.76;39.24;100683.78;5090990;28;20132;-67
2023/07/09 10:26:23;;;;;;;4.47;2.72;;;;;;;26.79;39.75;100688.03;5093788;28;20079;-70
2023/07/09 10:29:08;;;;;;;5.63;2.80;;;;;;;26.81;39.27;100685.94;5093134;28;20396;-69
2023/07/09 10:31:44;;;;;;;5.18;2.97;;;;;;;26.82;39.49;100687.63;5094204;28;20044;-69
2023/07/09 10:34:26;;;;;;;3.85;2.75;;;;;;;26.84;39.13;100693.78;5093216;28;20090;-68
2023/07/09 10:37:09;;;;;;;4.15;2.67;;;;;;;26.87;39.37;100695.31;5094577;28;20044;-68
2023/07/09 10:39:44;;;;;;;4.82;2.78;;;;;;;26.89;39.07;100695.97;5094461;28;20048;-68
2023/07/09 10:42:31;;;;;;;5.32;2.80;;;;;;;26.91;39.24;100691.97;5094425;28;20051;-68
2023/07/09 10:45:04;;;;;;;4.30;2.78;;;;;;;26.93;39.02;100678.13;5094742;28;20101;-68
2023/07/09 10:47:37;;;;;;;4.45;2.63;;;;;;;26.96;38.72;100680.50;5094447;28;20051;-68
2023/07/09 10:50:10;;;;;;;4.93;3.33;;;;;;;26.99;38.35;100671.88;5092431;28;20056;-68
2023/07/09 10:52:43;;;;;;;4.60;2.80;;;;;;;27.04;38.54;100677.69;5093602;28;20060;-68
2023/07/09 10:55:17;;;;;;;4.97;2.72;;;;;;;27.05;38.50;100673.91;5093641;28;20237;-68
2023/07/09 10:57:52;;;;;;;6.28;3.17;;;;;;;27.06;38.63;100667.41;5093973;28;20054;-69
2023/07/09 11:00:24;;;;;;;5.18;3.13;;;;;;;27.09;38.84;100675.22;5093924;28;20433;-69
2023/07/09 11:03:00;;;;;;;4.55;3.00;;;;;;;27.11;39.01;100670.41;5093421;28;20048;-68
2023/07/09 11:05:28;;;;;;;4.30;2.70;;;;;;;27.15;38.65;100665.41;5093930;28;20491;-68
2023/07/09 11:08:03;;;;;;;5.03;2.70;;;;;;;27.16;38.72;100667.97;5101384;28;20120;-68
2023/07/09 11:10:36;;;;;;;4.18;2.75;;;;;;;27.20;38.20;100673.88;5093568;28;20493;-68
2023/07/09 11:13:12;;;;;;;3.95;2.72;;;;;;;27.22;38.23;100677.31;5093470;28;20441;-69
2023/07/09 11:15:46;;;;;;;4.32;2.95;;;;;;;27.26;37.90;100674.00;5093769;28;20138;-69
2023/07/09 11:18:22;;;;;;;5.03;3.03;;;;;;;27.28;37.81;100668.31;5093585;28;20044;-69
2023/07/09 11:21:00;;;;;;;5.22;3.08;;;;;;;27.31;38.13;100671.53;5093191;28;20127;-68
2023/07/09 11:23:39;;;;;;;7.32;2.92;;;;;;;27.34;38.20;100665.66;5093372;28;20443;-66
2023/07/09 11:26:22;;;;;;;4.75;3.45;;;;;;;27.43;35.51;100657.34;5093220;28;20132;-66
2023/07/09 11:28:55;;;;;;;5.30;3.25;;;;;;;27.48;34.83;100649.38;5093337;28;20769;-66
2023/07/09 11:31:34;;;;;;;6.60;3.28;;;;;;;27.55;33.96;100653.06;5093163;28;20093;-66
2023/07/09 11:34:08;;;;;;;4.18;3.00;;;;;;;27.67;33.62;100649.63;5093350;28;20056;-66
2023/07/09 11:36:50;;;;;;;5.10;3.25;;;;;;;27.77;33.56;100654.81;5092253;28;20105;-66
2023/07/09 11:39:22;;;;;;;4.50;3.38;;;;;;;27.87;33.07;100649.84;5093278;28;20121;-66
2023/07/09 11:41:51;;;;;;;5.25;3.28;;;;;;;27.99;33.08;100649.31;5074628;28;20040;-66
2023/07/09 11:44:23;;;;;;;5.22;3.30;;;;;;;28.03;33.25;100653.38;5093102;28;20417;-66